sensor_id;sensor_type;location;lat;lon;timestamp;pressure;altitude;pressure_sealevel;temperature;humidity
19811;BME280;10065;49.632;8.346;2023-05-19T00:01:47;101235.78;;;15.50;47.34
19811;BME280;10065;49.632;8.346;2023-05-19T00:04:15;101235.28;;;15.46;47.46
19811;BME280;10065;49.632;8.346;2023-05-19T00:06:45;101230.59;;;15.48;47.33
19811;BME280;10065;49.632;8.346;2023-05-19T00:09:16;101231.13;;;15.52;47.38
19811;BME280;10065;49.632;8.346;2023-05-19T00:11:44;101232.09;;;15.42;47.55
19811;BME280;10065;49.632;8.346;2023-05-19T00:14:13;101231.44;;;15.49;47.48
19811;BME280;10065;49.632;8.346;2023-05-19T00:16:41;101230.06;;;15.36;47.69
19811;BME280;10065;49.632;8.346;2023-05-19T00:19:10;101224.34;;;15.31;47.46
19811;BME280;10065;49.632;8.346;2023-05-19T00:21:38;101230.22;;;15.35;47.51
19811;BME280;10065;49.632;8.346;2023-05-19T00:24:06;101226.03;;;15.32;47.88
19811;BME280;10065;49.632;8.346;2023-05-19T00:26:34;101226.03;;;15.32;47.90
19811;BME280;10065;49.632;8.346;2023-05-19T00:29:01;101226.88;;;15.33;47.73
19811;BME280;10065;49.632;8.346;2023-05-19T00:31:29;101239.34;;;15.24;47.83
19811;BME280;10065;49.632;8.346;2023-05-19T00:33:59;101235.69;;;15.25;47.72
19811;BME280;10065;49.632;8.346;2023-05-19T00:36:28;101239.34;;;15.24;47.74
19811;BME280;10065;49.632;8.346;2023-05-19T00:38:56;101237.19;;;15.20;47.88
19811;BME280;10065;49.632;8.346;2023-05-19T00:41:24;101231.03;;;15.27;47.66
19811;BME280;10065;49.632;8.346;2023-05-19T00:43:52;101236.66;;;15.16;48.10
19811;BME280;10065;49.632;8.346;2023-05-19T00:46:20;101232.28;;;15.15;48.14
19811;BME280;10065;49.632;8.346;2023-05-19T00:48:48;101226.75;;;15.09;47.99
19811;BME280;10065;49.632;8.346;2023-05-19T00:51:17;101227.56;;;15.01;48.42
19811;BME280;10065;49.632;8.346;2023-05-19T00:53:47;101230.91;;;15.03;48.21
19811;BME280;10065;49.632;8.346;2023-05-19T00:56:17;101219.53;;;15.01;48.20
19811;BME280;10065;49.632;8.346;2023-05-19T00:58:45;101221.69;;;14.97;48.46
19811;BME280;10065;49.632;8.346;2023-05-19T01:01:13;101223.34;;;14.98;48.37
19811;BME280;10065;49.632;8.346;2023-05-19T01:03:43;101217.38;;;15.04;48.21
19811;BME280;10065;49.632;8.346;2023-05-19T01:06:12;101217.19;;;14.98;48.47
19811;BME280;10065;49.632;8.346;2023-05-19T01:08:40;101215.16;;;14.92;48.76
19811;BME280;10065;49.632;8.346;2023-05-19T01:11:09;101216.34;;;14.97;48.52
19811;BME280;10065;49.632;8.346;2023-05-19T01:13:37;101213.81;;;14.96;48.49
19811;BME280;10065;49.632;8.346;2023-05-19T01:16:11;101205.41;;;14.83;48.77
19811;BME280;10065;49.632;8.346;2023-05-19T01:18:47;101207.25;;;14.82;48.90
19811;BME280;10065;49.632;8.346;2023-05-19T01:24:33;101210.22;;;14.79;48.96
19811;BME280;10065;49.632;8.346;2023-05-19T01:27:36;101211.84;;;14.72;49.09
19811;BME280;10065;49.632;8.346;2023-05-19T01:30:26;101198.44;;;14.64;49.21
19811;BME280;10065;49.632;8.346;2023-05-19T01:32:58;101204.31;;;14.67;49.08
19811;BME280;10065;49.632;8.346;2023-05-19T01:35:28;101208.34;;;14.72;49.06
19811;BME280;10065;49.632;8.346;2023-05-19T01:37:59;101210.69;;;14.75;48.97
19811;BME280;10065;49.632;8.346;2023-05-19T01:40:27;101208.19;;;14.73;49.07
19811;BME280;10065;49.632;8.346;2023-05-19T01:42:58;101204.72;;;14.81;48.87
19811;BME280;10065;49.632;8.346;2023-05-19T01:45:28;101212.00;;;14.71;48.90
19811;BME280;10065;49.632;8.346;2023-05-19T01:47:58;101217.50;;;14.69;48.95
19811;BME280;10065;49.632;8.346;2023-05-19T01:50:27;101217.19;;;14.72;49.02
19811;BME280;10065;49.632;8.346;2023-05-19T01:52:56;101213.22;;;14.76;48.93
19811;BME280;10065;49.632;8.346;2023-05-19T01:55:24;101220.00;;;14.71;49.04
19811;BME280;10065;49.632;8.346;2023-05-19T01:58:00;101214.25;;;14.57;49.26
19811;BME280;10065;49.632;8.346;2023-05-19T02:00:40;101216.53;;;14.52;49.65
19811;BME280;10065;49.632;8.346;2023-05-19T02:03:20;101234.63;;;14.58;49.20
19811;BME280;10065;49.632;8.346;2023-05-19T02:05:55;101228.66;;;14.64;49.26
19811;BME280;10065;49.632;8.346;2023-05-19T02:08:29;101221.78;;;14.62;49.02
19811;BME280;10065;49.632;8.346;2023-05-19T02:11:06;101217.28;;;14.62;48.96
19811;BME280;10065;49.632;8.346;2023-05-19T02:13:36;101224.09;;;14.57;49.25
19811;BME280;10065;49.632;8.346;2023-05-19T02:16:08;101219.16;;;14.44;49.45
19811;BME280;10065;49.632;8.346;2023-05-19T02:18:38;101226.91;;;14.55;49.45
19811;BME280;10065;49.632;8.346;2023-05-19T02:21:11;101229.22;;;14.50;49.76
19811;BME280;10065;49.632;8.346;2023-05-19T02:23:39;101224.09;;;14.57;49.52
19811;BME280;10065;49.632;8.346;2023-05-19T02:26:07;101230.38;;;14.48;49.49
19811;BME280;10065;49.632;8.346;2023-05-19T02:28:35;101223.88;;;14.50;49.39
19811;BME280;10065;49.632;8.346;2023-05-19T02:31:02;101222.22;;;14.49;49.56
19811;BME280;10065;49.632;8.346;2023-05-19T02:33:35;101223.19;;;14.48;49.33
19811;BME280;10065;49.632;8.346;2023-05-19T02:36:03;101223.19;;;14.48;49.45
19811;BME280;10065;49.632;8.346;2023-05-19T02:38:31;101220.97;;;14.44;49.57
19811;BME280;10065;49.632;8.346;2023-05-19T02:40:59;101222.16;;;14.41;49.64
19811;BME280;10065;49.632;8.346;2023-05-19T02:43:27;101212.22;;;14.34;49.60
19811;BME280;10065;49.632;8.346;2023-05-19T02:45:56;101217.56;;;14.34;49.71
19811;BME280;10065;49.632;8.346;2023-05-19T02:48:23;101211.28;;;14.25;50.06
19811;BME280;10065;49.632;8.346;2023-05-19T02:50:52;101217.56;;;14.34;49.81
19811;BME280;10065;49.632;8.346;2023-05-19T02:53:20;101212.38;;;14.32;49.87
19811;BME280;10065;49.632;8.346;2023-05-19T02:55:48;101214.28;;;14.22;50.09
19811;BME280;10065;49.632;8.346;2023-05-19T02:58:16;101217.31;;;14.27;50.09
19811;BME280;10065;49.632;8.346;2023-05-19T03:00:44;101211.91;;;14.19;49.96
19811;BME280;10065;49.632;8.346;2023-05-19T03:03:11;101211.97;;;14.27;49.87
19811;BME280;10065;49.632;8.346;2023-05-19T03:05:40;101205.03;;;14.16;50.03
19811;BME280;10065;49.632;8.346;2023-05-19T03:08:09;101200.94;;;14.04;50.81
19811;BME280;10065;49.632;8.346;2023-05-19T03:10:37;101209.16;;;14.11;50.41
19811;BME280;10065;49.632;8.346;2023-05-19T03:13:05;101213.16;;;14.07;50.41
19811;BME280;10065;49.632;8.346;2023-05-19T03:15:32;101213.22;;;14.15;50.37
19811;BME280;10065;49.632;8.346;2023-05-19T03:18:02;101213.53;;;14.12;50.64
19811;BME280;10065;49.632;8.346;2023-05-19T03:20:29;101209.56;;;14.16;50.43
19811;BME280;10065;49.632;8.346;2023-05-19T03:22:57;101204.53;;;14.13;50.30
19811;BME280;10065;49.632;8.346;2023-05-19T03:25:26;101207.63;;;14.08;50.40
19811;BME280;10065;49.632;8.346;2023-05-19T03:27:55;101210.16;;;14.10;50.52
19811;BME280;10065;49.632;8.346;2023-05-19T03:30:23;101218.63;;;14.05;50.52
19811;BME280;10065;49.632;8.346;2023-05-19T03:32:50;101218.78;;;14.04;50.71
19811;BME280;10065;49.632;8.346;2023-05-19T03:35:18;101226.16;;;14.10;50.47
19811;BME280;10065;49.632;8.346;2023-05-19T03:37:46;101225.94;;;14.03;50.82
19811;BME280;10065;49.632;8.346;2023-05-19T03:40:14;101226.78;;;14.04;50.67
19811;BME280;10065;49.632;8.346;2023-05-19T03:42:45;101226.78;;;14.04;50.63
19811;BME280;10065;49.632;8.346;2023-05-19T03:45:13;101227.75;;;14.03;50.47
19811;BME280;10065;49.632;8.346;2023-05-19T03:47:41;101229.59;;;14.02;50.78
19811;BME280;10065;49.632;8.346;2023-05-19T03:50:09;101232.72;;;13.98;50.97
19811;BME280;10065;49.632;8.346;2023-05-19T03:52:37;101228.53;;;13.95;50.89
19811;BME280;10065;49.632;8.346;2023-05-19T03:55:06;101224.03;;;13.96;50.93
19811;BME280;10065;49.632;8.346;2023-05-19T03:57:34;101225.47;;;13.90;50.98
19811;BME280;10065;49.632;8.346;2023-05-19T04:00:05;101229.56;;;13.84;51.46
19811;BME280;10065;49.632;8.346;2023-05-19T04:02:33;101227.53;;;13.78;51.56
19811;BME280;10065;49.632;8.346;2023-05-19T04:05:01;101216.47;;;13.73;51.50
19811;BME280;10065;49.632;8.346;2023-05-19T04:07:30;101229.78;;;13.73;51.35
19811;BME280;10065;49.632;8.346;2023-05-19T04:09:58;101227.75;;;13.85;51.35
19811;BME280;10065;49.632;8.346;2023-05-19T04:12:28;101234.22;;;13.82;51.38
19811;BME280;10065;49.632;8.346;2023-05-19T04:14:56;101232.53;;;13.81;51.75
19811;BME280;10065;49.632;8.346;2023-05-19T04:17:25;101228.38;;;13.79;51.51
19811;BME280;10065;49.632;8.346;2023-05-19T04:19:53;101232.06;;;13.68;52.03
19811;BME280;10065;49.632;8.346;2023-05-19T04:22:21;101231.63;;;13.73;52.05
19811;BME280;10065;49.632;8.346;2023-05-19T04:24:49;101236.50;;;13.77;52.07
19811;BME280;10065;49.632;8.346;2023-05-19T04:27:18;101236.59;;;13.85;51.96
19811;BME280;10065;49.632;8.346;2023-05-19T04:29:47;101231.63;;;13.73;52.15
19811;BME280;10065;49.632;8.346;2023-05-19T04:32:15;101230.88;;;13.80;51.85
19811;BME280;10065;49.632;8.346;2023-05-19T04:34:45;101232.09;;;13.86;51.82
19811;BME280;10065;49.632;8.346;2023-05-19T04:37:13;101236.88;;;13.82;51.82
19811;BME280;10065;49.632;8.346;2023-05-19T04:39:41;101241.16;;;13.93;51.55
19811;BME280;10065;49.632;8.346;2023-05-19T04:42:10;101243.38;;;13.80;51.81
19811;BME280;10065;49.632;8.346;2023-05-19T04:44:38;101243.91;;;13.83;52.45
19811;BME280;10065;49.632;8.346;2023-05-19T04:47:06;101248.41;;;14.01;51.87
19811;BME280;10065;49.632;8.346;2023-05-19T04:49:35;101242.78;;;14.04;51.57
19811;BME280;10065;49.632;8.346;2023-05-19T04:52:07;101247.69;;;13.81;52.02
19811;BME280;10065;49.632;8.346;2023-05-19T04:54:36;101245.56;;;13.84;51.96
19811;BME280;10065;49.632;8.346;2023-05-19T04:57:05;101253.97;;;14.07;51.76
19811;BME280;10065;49.632;8.346;2023-05-19T04:59:32;101253.22;;;13.97;51.73
19811;BME280;10065;49.632;8.346;2023-05-19T05:02:00;101250.91;;;13.84;52.22
19811;BME280;10065;49.632;8.346;2023-05-19T05:04:29;101253.28;;;13.87;52.36
19811;BME280;10065;49.632;8.346;2023-05-19T05:06:57;101249.03;;;13.94;52.09
19811;BME280;10065;49.632;8.346;2023-05-19T05:09:26;101251.47;;;14.06;51.83
19811;BME280;10065;49.632;8.346;2023-05-19T05:11:54;101247.50;;;14.10;51.50
19811;BME280;10065;49.632;8.346;2023-05-19T05:14:23;101254.97;;;14.24;51.33
19811;BME280;10065;49.632;8.346;2023-05-19T05:16:51;101254.38;;;14.30;51.21
19811;BME280;10065;49.632;8.346;2023-05-19T05:19:19;101255.66;;;14.26;51.31
19811;BME280;10065;49.632;8.346;2023-05-19T05:21:48;101252.38;;;14.32;51.28
19811;BME280;10065;49.632;8.346;2023-05-19T05:24:17;101252.97;;;14.26;51.41
19811;BME280;10065;49.632;8.346;2023-05-19T05:26:46;101252.38;;;14.32;51.28
19811;BME280;10065;49.632;8.346;2023-05-19T05:29:14;101255.72;;;14.34;51.17
19811;BME280;10065;49.632;8.346;2023-05-19T05:31:42;101252.75;;;14.19;51.49
19811;BME280;10065;49.632;8.346;2023-05-19T05:34:10;101247.41;;;14.37;51.54
19811;BME280;10065;49.632;8.346;2023-05-19T05:36:37;101243.66;;;14.40;51.35
19811;BME280;10065;49.632;8.346;2023-05-19T05:39:05;101237.03;;;14.34;51.29
19811;BME280;10065;49.632;8.346;2023-05-19T05:41:33;101242.38;;;14.34;51.53
19811;BME280;10065;49.632;8.346;2023-05-19T05:44:02;101242.84;;;14.29;51.45
19811;BME280;10065;49.632;8.346;2023-05-19T05:46:31;101247.13;;;14.22;51.82
19811;BME280;10065;49.632;8.346;2023-05-19T05:49:01;101240.63;;;14.25;52.27
19811;BME280;10065;49.632;8.346;2023-05-19T05:51:29;101238.13;;;14.23;52.05
19811;BME280;10065;49.632;8.346;2023-05-19T05:53:59;101239.72;;;14.34;52.29
19811;BME280;10065;49.632;8.346;2023-05-19T05:56:27;101243.91;;;14.37;52.02
19811;BME280;10065;49.632;8.346;2023-05-19T05:58:55;101237.88;;;14.35;52.24
19811;BME280;10065;49.632;8.346;2023-05-19T06:01:24;101244.75;;;14.37;52.25
19811;BME280;10065;49.632;8.346;2023-05-19T06:03:52;101242.03;;;14.47;51.85
19811;BME280;10065;49.632;8.346;2023-05-19T06:06:19;101239.56;;;14.53;51.93
19811;BME280;10065;49.632;8.346;2023-05-19T06:08:47;101239.81;;;14.60;51.63
19811;BME280;10065;49.632;8.346;2023-05-19T06:11:15;101238.63;;;14.62;52.12
19811;BME280;10065;49.632;8.346;2023-05-19T06:13:43;101242.94;;;14.55;51.78
19811;BME280;10065;49.632;8.346;2023-05-19T06:16:10;101236.41;;;14.76;51.40
19811;BME280;10065;49.632;8.346;2023-05-19T06:18:39;101243.59;;;14.75;51.98
19811;BME280;10065;49.632;8.346;2023-05-19T06:21:07;101236.56;;;14.74;51.78
19811;BME280;10065;49.632;8.346;2023-05-19T06:23:35;101236.13;;;14.87;51.14
19811;BME280;10065;49.632;8.346;2023-05-19T06:26:03;101234.09;;;14.81;51.00
19811;BME280;10065;49.632;8.346;2023-05-19T06:28:31;101233.31;;;14.88;50.46
19811;BME280;10065;49.632;8.346;2023-05-19T06:30:59;101232.25;;;14.81;50.77
19811;BME280;10065;49.632;8.346;2023-05-19T06:33:27;101235.66;;;14.91;50.99
19811;BME280;10065;49.632;8.346;2023-05-19T06:35:56;101239.13;;;14.84;51.35
19811;BME280;10065;49.632;8.346;2023-05-19T06:38:24;101242.50;;;14.86;51.14
19811;BME280;10065;49.632;8.346;2023-05-19T06:40:52;101239.53;;;14.97;51.13
19811;BME280;10065;49.632;8.346;2023-05-19T06:43:19;101247.09;;;15.01;51.07
19811;BME280;10065;49.632;8.346;2023-05-19T06:45:47;101245.16;;;15.12;50.86
19811;BME280;10065;49.632;8.346;2023-05-19T06:48:15;101245.03;;;15.21;50.70
19811;BME280;10065;49.632;8.346;2023-05-19T06:50:43;101247.22;;;15.26;50.57
19811;BME280;10065;49.632;8.346;2023-05-19T06:53:12;101244.41;;;15.35;50.39
19811;BME280;10065;49.632;8.346;2023-05-19T06:55:40;101242.44;;;15.37;50.23
19811;BME280;10065;49.632;8.346;2023-05-19T06:58:23;101248.22;;;15.59;49.87
19811;BME280;10065;49.632;8.346;2023-05-19T07:00:52;101235.22;;;15.64;49.65
19811;BME280;10065;49.632;8.346;2023-05-19T07:03:20;101229.88;;;15.72;49.04
19811;BME280;10065;49.632;8.346;2023-05-19T07:05:48;101230.06;;;15.87;49.21
19811;BME280;10065;49.632;8.346;2023-05-19T07:08:17;101235.28;;;15.96;49.10
19811;BME280;10065;49.632;8.346;2023-05-19T07:10:44;101222.91;;;16.03;48.76
19811;BME280;10065;49.632;8.346;2023-05-19T07:13:12;101228.47;;;16.18;48.73
19811;BME280;10065;49.632;8.346;2023-05-19T07:15:40;101223.28;;;16.08;50.90
19811;BME280;10065;49.632;8.346;2023-05-19T07:18:08;101217.78;;;16.18;49.36
19811;BME280;10065;49.632;8.346;2023-05-19T07:20:35;101214.75;;;16.29;48.46
19811;BME280;10065;49.632;8.346;2023-05-19T07:23:03;101213.56;;;16.48;47.78
19811;BME280;10065;49.632;8.346;2023-05-19T07:25:32;101213.25;;;16.67;47.74
19811;BME280;10065;49.632;8.346;2023-05-19T07:28:00;101214.75;;;16.70;47.55
19811;BME280;10065;49.632;8.346;2023-05-19T07:30:28;101211.91;;;16.79;47.08
19811;BME280;10065;49.632;8.346;2023-05-19T07:32:56;101211.22;;;16.85;46.99
19811;BME280;10065;49.632;8.346;2023-05-19T07:35:25;101206.16;;;16.90;47.12
19811;BME280;10065;49.632;8.346;2023-05-19T07:37:53;101207.53;;;16.86;46.96
19811;BME280;10065;49.632;8.346;2023-05-19T07:40:22;101204.00;;;16.94;47.28
19811;BME280;10065;49.632;8.346;2023-05-19T07:42:51;101206.50;;;16.96;46.79
19811;BME280;10065;49.632;8.346;2023-05-19T07:45:19;101198.59;;;17.02;46.90
19811;BME280;10065;49.632;8.346;2023-05-19T07:47:47;101194.38;;;17.08;46.41
19811;BME280;10065;49.632;8.346;2023-05-19T07:50:15;101183.63;;;17.16;45.92
19811;BME280;10065;49.632;8.346;2023-05-19T07:52:42;101192.69;;;17.23;46.13
19811;BME280;10065;49.632;8.346;2023-05-19T07:55:10;101186.75;;;17.36;45.84
19811;BME280;10065;49.632;8.346;2023-05-19T07:57:38;101179.50;;;17.44;46.37
19811;BME280;10065;49.632;8.346;2023-05-19T08:00:09;101182.91;;;17.61;46.04
19811;BME280;10065;49.632;8.346;2023-05-19T08:02:37;101181.72;;;17.72;45.93
19811;BME280;10065;49.632;8.346;2023-05-19T08:05:06;101189.38;;;17.83;45.70
19811;BME280;10065;49.632;8.346;2023-05-19T08:07:35;101183.75;;;17.92;45.41
19811;BME280;10065;49.632;8.346;2023-05-19T08:10:03;101185.56;;;18.00;45.37
19811;BME280;10065;49.632;8.346;2023-05-19T08:12:31;101182.47;;;18.11;44.63
19811;BME280;10065;49.632;8.346;2023-05-19T08:14:58;101183.00;;;18.21;44.34
19811;BME280;10065;49.632;8.346;2023-05-19T08:17:28;101185.28;;;18.32;44.35
19811;BME280;10065;49.632;8.346;2023-05-19T08:19:56;101188.72;;;18.41;43.66
19811;BME280;10065;49.632;8.346;2023-05-19T08:22:24;101178.56;;;18.51;43.49
19811;BME280;10065;49.632;8.346;2023-05-19T08:24:52;101167.13;;;18.57;43.59
19811;BME280;10065;49.632;8.346;2023-05-19T08:27:19;101171.38;;;18.66;43.47
19811;BME280;10065;49.632;8.346;2023-05-19T08:29:47;101168.06;;;18.79;43.74
19811;BME280;10065;49.632;8.346;2023-05-19T08:32:14;101165.56;;;18.92;43.06
19811;BME280;10065;49.632;8.346;2023-05-19T08:34:44;101154.34;;;19.03;42.76
19811;BME280;10065;49.632;8.346;2023-05-19T08:37:11;101162.69;;;19.08;42.77
19811;BME280;10065;49.632;8.346;2023-05-19T08:39:39;101160.94;;;19.15;42.45
19811;BME280;10065;49.632;8.346;2023-05-19T08:42:07;101160.81;;;19.24;42.31
19811;BME280;10065;49.632;8.346;2023-05-19T08:44:35;101156.53;;;19.29;42.16
19811;BME280;10065;49.632;8.346;2023-05-19T08:47:05;101155.41;;;19.38;41.76
19811;BME280;10065;49.632;8.346;2023-05-19T08:49:44;101158.47;;;19.50;42.04
19811;BME280;10065;49.632;8.346;2023-05-19T08:52:18;101141.19;;;19.59;42.41
19811;BME280;10065;49.632;8.346;2023-05-19T08:54:52;101143.81;;;19.74;41.73
19811;BME280;10065;49.632;8.346;2023-05-19T08:57:22;101144.81;;;19.87;41.31
19811;BME280;10065;49.632;8.346;2023-05-19T08:59:52;101137.84;;;20.00;40.64
19811;BME280;10065;49.632;8.346;2023-05-19T09:02:21;101142.47;;;20.06;40.35
19811;BME280;10065;49.632;8.346;2023-05-19T09:04:54;101130.94;;;20.12;40.13
19811;BME280;10065;49.632;8.346;2023-05-19T09:07:24;101127.25;;;20.19;39.24
19811;BME280;10065;49.632;8.346;2023-05-19T09:09:52;101136.41;;;20.25;39.38
19811;BME280;10065;49.632;8.346;2023-05-19T09:12:20;101128.19;;;20.33;39.13
19811;BME280;10065;49.632;8.346;2023-05-19T09:14:47;101129.50;;;20.37;39.15
19811;BME280;10065;49.632;8.346;2023-05-19T09:17:15;101128.06;;;20.41;38.78
19811;BME280;10065;49.632;8.346;2023-05-19T09:19:44;101126.28;;;20.48;39.25
19811;BME280;10065;49.632;8.346;2023-05-19T09:22:15;101120.78;;;20.63;38.78
19811;BME280;10065;49.632;8.346;2023-05-19T09:24:44;101121.44;;;20.72;38.69
19811;BME280;10065;49.632;8.346;2023-05-19T09:27:13;101111.97;;;20.82;38.07
19811;BME280;10065;49.632;8.346;2023-05-19T09:29:41;101105.56;;;20.90;38.20
19811;BME280;10065;49.632;8.346;2023-05-19T09:32:09;101110.78;;;20.98;38.06
19811;BME280;10065;49.632;8.346;2023-05-19T09:34:40;101112.94;;;21.09;37.15
19811;BME280;10065;49.632;8.346;2023-05-19T09:37:08;101102.56;;;21.13;36.21
19811;BME280;10065;49.632;8.346;2023-05-19T09:39:37;101110.50;;;21.21;36.55
19811;BME280;10065;49.632;8.346;2023-05-19T09:42:07;101110.84;;;21.11;36.32
19811;BME280;10065;49.632;8.346;2023-05-19T09:44:35;101113.00;;;21.22;36.12
19811;BME280;10065;49.632;8.346;2023-05-19T09:47:03;101106.19;;;21.39;35.72
19811;BME280;10065;49.632;8.346;2023-05-19T09:49:31;101100.16;;;21.37;35.29
19811;BME280;10065;49.632;8.346;2023-05-19T09:52:02;101102.28;;;21.49;34.89
19811;BME280;10065;49.632;8.346;2023-05-19T09:54:30;101098.09;;;21.39;34.58
19811;BME280;10065;49.632;8.346;2023-05-19T09:57:03;101094.81;;;21.51;35.17
19811;BME280;10065;49.632;8.346;2023-05-19T09:59:34;101095.88;;;21.63;35.40
19811;BME280;10065;49.632;8.346;2023-05-19T10:02:04;101096.09;;;21.55;34.99
19811;BME280;10065;49.632;8.346;2023-05-19T10:04:36;101095.22;;;21.48;34.59
19811;BME280;10065;49.632;8.346;2023-05-19T10:07:07;101095.41;;;21.46;34.85
19811;BME280;10065;49.632;8.346;2023-05-19T10:09:36;101086.28;;;21.40;35.19
19811;BME280;10065;49.632;8.346;2023-05-19T10:12:07;101084.16;;;21.29;35.40
19811;BME280;10065;49.632;8.346;2023-05-19T10:14:37;101094.97;;;21.29;36.13
19811;BME280;10065;49.632;8.346;2023-05-19T10:17:06;101081.06;;;21.32;36.06
19811;BME280;10065;49.632;8.346;2023-05-19T10:19:36;101080.69;;;21.49;36.01
19811;BME280;10065;49.632;8.346;2023-05-19T10:22:04;101075.72;;;21.59;36.13
19811;BME280;10065;49.632;8.346;2023-05-19T10:24:32;101079.06;;;21.74;36.51
19811;BME280;10065;49.632;8.346;2023-05-19T10:27:03;101080.53;;;21.83;36.17
19811;BME280;10065;49.632;8.346;2023-05-19T10:29:39;101076.19;;;21.89;36.38
19811;BME280;10065;49.632;8.346;2023-05-19T10:32:10;101078.44;;;21.85;35.97
19811;BME280;10065;49.632;8.346;2023-05-19T10:35:02;101066.19;;;21.76;35.99
19811;BME280;10065;49.632;8.346;2023-05-19T10:37:40;101060.16;;;21.74;35.78
19811;BME280;10065;49.632;8.346;2023-05-19T10:40:17;101060.41;;;22.05;36.06
19811;BME280;10065;49.632;8.346;2023-05-19T10:45:44;101072.41;;;22.36;35.16
19811;BME280;10065;49.632;8.346;2023-05-19T10:48:14;101071.97;;;22.52;35.01
19811;BME280;10065;49.632;8.346;2023-05-19T10:50:43;101070.94;;;22.60;35.23
19811;BME280;10065;49.632;8.346;2023-05-19T10:53:16;101072.81;;;22.46;35.12
19811;BME280;10065;49.632;8.346;2023-05-19T10:55:52;101071.41;;;22.24;35.30
19811;BME280;10065;49.632;8.346;2023-05-19T10:58:36;101078.28;;;22.06;35.11
19811;BME280;10065;49.632;8.346;2023-05-19T11:01:12;101073.28;;;22.10;35.54
19811;BME280;10065;49.632;8.346;2023-05-19T11:03:47;101067.44;;;22.26;35.92
19811;BME280;10065;49.632;8.346;2023-05-19T11:06:25;101064.75;;;22.33;35.72
19811;BME280;10065;49.632;8.346;2023-05-19T11:08:55;101057.03;;;22.49;35.03
19811;BME280;10065;49.632;8.346;2023-05-19T11:11:24;101052.38;;;22.70;34.65
19811;BME280;10065;49.632;8.346;2023-05-19T11:13:53;101055.91;;;22.83;34.43
19811;BME280;10065;49.632;8.346;2023-05-19T11:16:33;101057.94;;;22.95;34.17
19811;BME280;10065;49.632;8.346;2023-05-19T11:19:01;101064.50;;;23.12;34.70
19811;BME280;10065;49.632;8.346;2023-05-19T11:21:46;101057.97;;;23.26;33.71
19811;BME280;10065;49.632;8.346;2023-05-19T11:24:32;101062.13;;;23.22;33.99
19811;BME280;10065;49.632;8.346;2023-05-19T11:27:16;101049.81;;;22.95;34.15
19811;BME280;10065;49.632;8.346;2023-05-19T11:29:44;101044.03;;;22.84;34.61
19811;BME280;10065;49.632;8.346;2023-05-19T11:32:15;101047.81;;;22.77;34.84
19811;BME280;10065;49.632;8.346;2023-05-19T11:34:43;101045.28;;;22.82;34.78
19811;BME280;10065;49.632;8.346;2023-05-19T11:37:11;101044.25;;;22.70;34.37
19811;BME280;10065;49.632;8.346;2023-05-19T11:39:39;101038.06;;;22.56;35.50
19811;BME280;10065;49.632;8.346;2023-05-19T11:42:07;101043.94;;;22.40;35.20
19811;BME280;10065;49.632;8.346;2023-05-19T11:44:35;101038.34;;;22.41;35.76
19811;BME280;10065;49.632;8.346;2023-05-19T11:47:04;101036.25;;;22.37;35.73
19811;BME280;10065;49.632;8.346;2023-05-19T11:49:33;101027.34;;;22.30;35.63
19811;BME280;10065;49.632;8.346;2023-05-19T11:52:02;101031.50;;;22.19;35.16
19811;BME280;10065;49.632;8.346;2023-05-19T11:54:31;101027.97;;;22.19;35.87
19811;BME280;10065;49.632;8.346;2023-05-19T11:57:00;101026.31;;;22.18;36.71
19811;BME280;10065;49.632;8.346;2023-05-19T11:59:29;101018.44;;;22.16;36.24
19811;BME280;10065;49.632;8.346;2023-05-19T12:02:01;101007.63;;;22.23;36.52
19811;BME280;10065;49.632;8.346;2023-05-19T12:04:30;101004.28;;;22.27;35.86
19811;BME280;10065;49.632;8.346;2023-05-19T12:06:59;100998.25;;;22.32;36.56
19811;BME280;10065;49.632;8.346;2023-05-19T12:09:27;101003.22;;;22.35;35.63
19811;BME280;10065;49.632;8.346;2023-05-19T12:11:55;101002.19;;;22.29;36.07
19811;BME280;10065;49.632;8.346;2023-05-19T12:14:24;100997.84;;;22.22;35.86
19811;BME280;10065;49.632;8.346;2023-05-19T12:16:52;101005.97;;;22.22;36.25
19811;BME280;10065;49.632;8.346;2023-05-19T12:19:21;101002.44;;;22.21;35.88
19811;BME280;10065;49.632;8.346;2023-05-19T12:21:50;100990.38;;;22.24;36.78
19811;BME280;10065;49.632;8.346;2023-05-19T12:24:20;100990.59;;;22.22;36.70
19811;BME280;10065;49.632;8.346;2023-05-19T12:26:48;100990.16;;;22.19;36.99
19811;BME280;10065;49.632;8.346;2023-05-19T12:29:16;101005.16;;;22.14;35.83
19811;BME280;10065;49.632;8.346;2023-05-19T12:31:45;101005.97;;;22.08;35.63
19811;BME280;10065;49.632;8.346;2023-05-19T12:34:14;101006.41;;;22.05;35.42
19811;BME280;10065;49.632;8.346;2023-05-19T12:36:42;100994.78;;;21.98;35.06
19811;BME280;10065;49.632;8.346;2023-05-19T12:39:09;100995.81;;;22.04;35.11
19811;BME280;10065;49.632;8.346;2023-05-19T12:41:43;100999.38;;;21.98;35.53
19811;BME280;10065;49.632;8.346;2023-05-19T12:44:14;100994.34;;;21.95;34.85
19811;BME280;10065;49.632;8.346;2023-05-19T12:46:42;100984.16;;;21.97;35.79
19811;BME280;10065;49.632;8.346;2023-05-19T12:49:10;100994.16;;;22.03;35.87
19811;BME280;10065;49.632;8.346;2023-05-19T12:51:38;100990.81;;;21.94;35.32
19811;BME280;10065;49.632;8.346;2023-05-19T12:54:06;100991.84;;;21.93;35.17
19811;BME280;10065;49.632;8.346;2023-05-19T12:56:33;100981.03;;;21.93;35.12
19811;BME280;10065;49.632;8.346;2023-05-19T12:59:02;100982.28;;;21.91;35.75
19811;BME280;10065;49.632;8.346;2023-05-19T13:01:31;100980.47;;;21.98;35.13
19811;BME280;10065;49.632;8.346;2023-05-19T13:03:58;100984.16;;;21.97;34.66
19811;BME280;10065;49.632;8.346;2023-05-19T13:06:29;100987.28;;;22.00;34.82
19811;BME280;10065;49.632;8.346;2023-05-19T13:08:58;100986.06;;;22.03;35.10